Time;durP1;ratioP1;P1;durP2;ratioP2;P2;SDS_P1;SDS_P2;PMS_P1;PMS_P2;Temp;Humidity;BMP_temperature;BMP_pressure;BME280_temperature;BME280_humidity;BME280_pressure;Samples;Min_cycle;Max_cycle;Signal;HPM_P1;HPM_P2
2021/09/24 00:02:09;;;;;;;6.23;5.83;;;16.00;99.90;;;;;;10466744;28;20301;-83
2021/09/24 00:07:12;;;;;;;7.63;5.90;;;16.00;99.90;;;;;;10463607;28;20232;-83
2021/09/24 00:12:14;;;;;;;6.67;6.07;;;16.00;99.90;;;;;;10476385;28;20224;-82
2021/09/24 00:17:18;;;;;;;4.87;4.57;;;16.00;99.90;;;;;;10497375;28;20220;-83
2021/09/24 00:22:20;;;;;;;5.93;5.53;;;16.00;99.90;;;;;;10482392;28;20258;-82
2021/09/24 00:27:22;;;;;;;5.90;5.50;;;16.10;99.90;;;;;;10478966;28;20232;-83
2021/09/24 00:32:25;;;;;;;6.03;5.53;;;16.10;99.90;;;;;;10483424;28;20238;-82
2021/09/24 00:37:28;;;;;;;6.77;6.20;;;16.10;99.90;;;;;;10468873;28;20231;-83
2021/09/24 00:42:30;;;;;;;6.07;5.57;;;16.00;99.90;;;;;;10467816;28;20668;-83
2021/09/24 00:47:33;;;;;;;6.30;5.90;;;16.10;99.90;;;;;;10484955;28;20248;-83
2021/09/24 00:52:35;;;;;;;6.50;6.00;;;16.10;99.90;;;;;;10488189;28;20280;-82
2021/09/24 00:57:38;;;;;;;6.73;6.03;;;16.10;99.90;;;;;;10476907;28;20248;-82
2021/09/24 01:02:41;;;;;;;6.40;5.90;;;16.10;99.90;;;;;;10462140;28;20208;-83
2021/09/24 01:07:45;;;;;;;7.20;6.60;;;16.00;99.90;;;;;;10467243;28;20375;-82
2021/09/24 01:12:47;;;;;;;7.00;6.30;;;15.90;99.90;;;;;;10475555;28;20277;-83
2021/09/24 01:17:51;;;;;;;6.70;6.20;;;15.90;99.90;;;;;;10477928;28;20221;-84
2021/09/24 01:22:54;;;;;;;5.80;5.40;;;15.80;99.90;;;;;;10519487;28;20275;-84
2021/09/24 01:27:57;;;;;;;6.33;5.93;;;15.70;99.90;;;;;;10522939;28;20223;-84
2021/09/24 01:32:59;;;;;;;6.67;6.07;;;15.70;99.90;;;;;;10516693;28;20566;-84
2021/09/24 01:38:04;;;;;;;6.80;6.27;;;15.50;99.90;;;;;;10520573;22;20262;-85
2021/09/24 01:43:07;;;;;;;6.77;6.37;;;15.50;99.90;;;;;;10506465;28;20284;-85
2021/09/24 01:48:09;;;;;;;6.97;5.70;;;15.50;99.90;;;;;;10491381;28;20235;-85
2021/09/24 01:53:13;;;;;;;6.70;6.17;;;15.50;99.90;;;;;;10500737;28;20706;-84
2021/09/24 01:58:15;;;;;;;6.70;6.20;;;15.40;99.90;;;;;;10489931;28;20251;-85
2021/09/24 02:03:17;;;;;;;6.90;6.40;;;15.40;99.90;;;;;;10521622;28;20604;-85
2021/09/24 02:08:21;;;;;;;6.77;6.17;;;15.30;99.90;;;;;;10480168;28;20666;-85
2021/09/24 02:13:23;;;;;;;5.93;5.17;;;15.30;99.90;;;;;;10515279;28;20235;-85
2021/09/24 02:18:25;;;;;;;6.90;6.40;;;15.30;99.90;;;;;;10504270;28;20227;-85
2021/09/24 02:23:29;;;;;;;7.20;6.70;;;15.30;99.90;;;;;;10498423;28;20200;-85
2021/09/24 02:28:31;;;;;;;7.07;6.57;;;15.20;99.90;;;;;;10503008;28;20620;-85
2021/09/24 02:33:33;;;;;;;7.07;6.63;;;15.20;99.90;;;;;;10483585;28;20295;-84
2021/09/24 02:38:37;;;;;;;6.97;6.40;;;15.20;99.90;;;;;;10480474;28;20232;-84
2021/09/24 02:43:40;;;;;;;6.77;6.17;;;15.20;99.90;;;;;;10439932;28;20223;-84
2021/09/24 02:48:43;;;;;;;6.93;6.33;;;15.20;99.90;;;;;;10428245;28;20221;-84
2021/09/24 02:53:47;;;;;;;6.97;6.53;;;15.10;99.90;;;;;;10439767;28;20232;-84
2021/09/24 02:58:49;;;;;;;7.30;6.70;;;15.10;99.90;;;;;;10421931;28;20312;-84
2021/09/24 03:03:52;;;;;;;6.40;5.93;;;15.10;99.90;;;;;;10438141;28;20201;-84
2021/09/24 03:08:55;;;;;;;6.77;6.17;;;15.00;99.90;;;;;;10435746;28;20689;-84
2021/09/24 03:13:57;;;;;;;7.40;6.70;;;15.00;99.90;;;;;;10437120;28;20304;-84
2021/09/24 03:19:00;;;;;;;6.80;6.30;;;14.90;99.90;;;;;;10421109;28;20232;-85
2021/09/24 03:24:04;;;;;;;6.63;6.13;;;14.80;99.90;;;;;;10458184;28;20258;-84
2021/09/24 03:29:06;;;;;;;7.67;7.00;;;14.80;99.90;;;;;;10484283;28;20220;-85
2021/09/24 03:34:09;;;;;;;8.00;7.40;;;14.80;99.90;;;;;;10461430;28;20200;-85
2021/09/24 03:39:14;;;;;;;7.73;7.13;;;14.80;99.90;;;;;;10487687;28;20646;-84
2021/09/24 03:44:16;;;;;;;7.13;6.63;;;14.80;99.90;;;;;;10470137;28;20223;-84
2021/09/24 03:49:18;;;;;;;7.37;6.87;;;14.80;99.90;;;;;;10472651;28;20702;-84
2021/09/24 03:54:22;;;;;;;9.77;6.97;;;14.90;99.90;;;;;;10468164;28;20208;-85
2021/09/24 03:59:25;;;;;;;7.03;6.53;;;14.90;99.90;;;;;;10462351;28;20747;-85
2021/09/24 04:04:27;;;;;;;7.17;6.67;;;14.90;99.90;;;;;;10484343;28;20235;-84
2021/09/24 04:09:30;;;;;;;8.60;6.93;;;14.90;99.90;;;;;;10474599;28;20231;-85
2021/09/24 04:14:32;;;;;;;7.90;7.30;;;14.90;99.90;;;;;;10477208;28;20181;-85
2021/09/24 04:19:35;;;;;;;7.53;7.00;;;14.90;99.90;;;;;;10456489;28;20308;-85
2021/09/24 04:24:38;;;;;;;6.67;6.10;;;14.90;99.90;;;;;;10443609;28;20730;-84
2021/09/24 04:29:40;;;;;;;7.33;6.83;;;14.90;99.90;;;;;;10461077;28;20222;-84
2021/09/24 04:34:43;;;;;;;9.13;7.87;;;14.90;99.90;;;;;;10430341;28;20661;-84
2021/09/24 04:39:46;;;;;;;7.83;7.23;;;14.90;99.90;;;;;;10418538;28;20249;-84
2021/09/24 04:44:48;;;;;;;8.00;7.33;;;14.90;99.90;;;;;;10435021;28;20201;-84
2021/09/24 04:49:50;;;;;;;7.73;6.93;;;14.80;99.90;;;;;;10453304;28;20676;-84
2021/09/24 04:54:55;;;;;;;8.10;7.40;;;14.70;99.90;;;;;;10442228;28;20288;-82
2021/09/24 04:59:57;;;;;;;8.00;7.40;;;14.60;99.90;;;;;;10422852;28;20221;-82
2021/09/24 05:04:59;;;;;;;8.23;7.53;;;14.60;99.90;;;;;;10455462;28;20228;-82
2021/09/24 05:10:04;;;;;;;8.00;7.30;;;14.50;99.90;;;;;;10503405;28;20563;-82
2021/09/24 05:15:07;;;;;;;7.30;6.80;;;14.50;99.90;;;;;;10471924;28;20200;-82
2021/09/24 05:20:10;;;;;;;8.87;7.97;;;14.50;99.90;;;;;;10480365;28;20221;-84
2021/09/24 05:25:14;;;;;;;8.20;7.60;;;14.50;99.90;;;;;;10455375;28;20196;-84
2021/09/24 05:30:17;;;;;;;8.27;7.47;;;14.50;99.90;;;;;;10491603;28;20707;-84
2021/09/24 05:35:19;;;;;;;7.97;7.27;;;14.50;99.90;;;;;;10457279;28;20209;-84
2021/09/24 05:40:23;;;;;;;8.73;8.03;;;14.50;99.90;;;;;;10466526;28;20228;-84
2021/09/24 05:45:25;;;;;;;8.87;8.17;;;14.50;99.90;;;;;;10466449;28;20204;-84
2021/09/24 05:50:27;;;;;;;8.10;7.37;;;14.50;99.90;;;;;;10467094;28;20602;-84
2021/09/24 05:55:31;;;;;;;7.30;6.67;;;14.50;99.90;;;;;;10466881;28;20204;-84
2021/09/24 06:00:33;;;;;;;8.67;7.83;;;14.50;99.90;;;;;;10467222;28;20239;-84
2021/09/24 06:05:35;;;;;;;8.97;8.27;;;14.50;99.90;;;;;;10501040;28;20284;-84
2021/09/24 06:10:39;;;;;;;7.87;7.07;;;14.50;99.90;;;;;;10476088;28;20362;-84
2021/09/24 06:15:42;;;;;;;8.43;7.73;;;14.60;99.90;;;;;;10465432;28;20201;-84
2021/09/24 06:20:44;;;;;;;7.73;7.03;;;14.60;99.90;;;;;;10464629;28;20335;-84
2021/09/24 06:25:48;;;;;;;9.63;8.70;;;14.70;99.90;;;;;;10499373;28;20247;-84
2021/09/24 06:30:50;;;;;;;9.57;8.77;;;14.70;99.90;;;;;;10481378;28;20714;-84
2021/09/24 06:35:52;;;;;;;9.47;8.67;;;14.80;99.90;;;;;;10464422;28;20740;-84
2021/09/24 06:40:55;;;;;;;8.80;8.00;;;14.90;99.90;;;;;;10465034;28;20220;-84
2021/09/24 06:45:58;;;;;;;8.70;7.90;;;14.90;99.90;;;;;;10480744;28;20714;-84
2021/09/24 06:51:00;;;;;;;8.30;7.67;;;15.00;99.90;;;;;;10462934;28;20228;-84
2021/09/24 06:56:04;;;;;;;8.90;8.10;;;15.10;99.90;;;;;;10464136;28;20211;-84
2021/09/24 07:01:06;;;;;;;9.17;8.40;;;15.10;99.90;;;;;;10462965;28;20220;-84
2021/09/24 07:06:08;;;;;;;9.00;8.10;;;15.20;99.90;;;;;;10463485;28;20201;-84
2021/09/24 07:11:12;;;;;;;9.50;8.50;;;15.30;99.90;;;;;;10462876;28;20235;-84
2021/09/24 07:16:14;;;;;;;8.50;7.80;;;15.40;99.90;;;;;;10462513;28;20247;-84
2021/09/24 07:21:16;;;;;;;7.43;6.83;;;15.50;99.90;;;;;;10462886;28;20231;-84
2021/09/24 07:26:20;;;;;;;8.67;7.97;;;15.60;99.90;;;;;;10462784;28;20203;-84
2021/09/24 07:31:22;;;;;;;7.80;7.10;;;15.70;99.90;;;;;;10462712;28;20235;-84
2021/09/24 07:36:25;;;;;;;9.33;8.60;;;15.80;99.90;;;;;;10479000;28;20277;-84
2021/09/24 07:41:29;;;;;;;8.83;8.03;;;15.90;99.90;;;;;;10462407;28;20204;-85
2021/09/24 07:46:32;;;;;;;8.87;8.20;;;16.00;99.90;;;;;;10478546;28;20287;-84
2021/09/24 07:51:34;;;;;;;9.90;8.17;;;16.10;99.90;;;;;;10461824;28;20255;-84
2021/09/24 07:56:37;;;;;;;8.10;7.30;;;16.20;99.90;;;;;;10477324;28;20228;-84
2021/09/24 08:01:39;;;;;;;9.23;8.50;;;16.30;99.90;;;;;;10476802;28;20185;-84
2021/09/24 08:06:42;;;;;;;8.90;8.20;;;16.40;99.90;;;;;;10476832;28;20251;-84
2021/09/24 08:11:45;;;;;;;8.20;7.50;;;16.50;99.90;;;;;;10460313;28;20220;-84
2021/09/24 08:16:47;;;;;;;7.90;7.30;;;16.60;99.90;;;;;;10476296;28;20275;-84
2021/09/24 08:21:49;;;;;;;8.80;7.43;;;16.70;99.90;;;;;;10459182;28;20648;-84
2021/09/24 08:26:53;;;;;;;6.97;6.50;;;16.90;99.90;;;;;;10476221;28;20216;-84
2021/09/24 08:31:55;;;;;;;7.30;6.70;;;17.00;99.90;;;;;;10476446;28;20565;-85
2021/09/24 08:36:57;;;;;;;8.37;7.67;;;17.00;99.90;;;;;;10459158;28;20319;-84
2021/09/24 08:42:00;;;;;;;8.00;7.30;;;17.10;99.90;;;;;;10475927;28;20203;-84
2021/09/24 08:47:04;;;;;;;8.70;7.90;;;17.20;99.90;;;;;;10475821;28;20315;-85
2021/09/24 08:52:07;;;;;;;7.40;6.90;;;17.20;99.90;;;;;;10476014;28;20227;-84
2021/09/24 08:57:13;;;;;;;6.80;6.20;;;17.30;99.90;;;;;;10475319;28;20700;-84
2021/09/24 09:02:15;;;;;;;8.47;7.50;;;17.40;99.90;;;;;;10459218;28;20288;-84
2021/09/24 09:07:20;;;;;;;8.63;7.90;;;17.40;99.90;;;;;;10475434;28;20244;-84
2021/09/24 09:12:27;;;;;;;8.03;7.30;;;17.50;99.90;;;;;;10461286;28;20680;-85
2021/09/24 09:17:32;;;;;;;7.90;7.30;;;17.70;99.90;;;;;;10468729;28;20228;-84
2021/09/24 09:22:34;;;;;;;7.23;6.63;;;17.80;99.90;;;;;;10482880;28;20620;-84
2021/09/24 09:27:37;;;;;;;5.83;5.40;;;18.10;99.90;;;;;;10466785;28;20251;-85
2021/09/24 09:32:39;;;;;;;4.83;4.53;;;18.40;99.90;;;;;;10481668;28;20220;-84
2021/09/24 09:37:42;;;;;;;5.60;5.10;;;18.60;99.90;;;;;;10482532;28;20739;-84
2021/09/24 09:43:02;;;;;;;5.13;4.73;;;18.80;99.90;;;;;;10482338;28;20287;-84
2021/09/24 09:48:13;;;;;;;5.57;5.17;;;19.10;99.90;;;;;;10469767;28;20231;-85
2021/09/24 09:53:17;;;;;;;5.00;4.70;;;19.50;99.90;;;;;;10491669;28;20319;-84
2021/09/24 09:58:22;;;;;;;4.93;4.53;;;19.70;99.90;;;;;;10500112;28;20684;-85
2021/09/24 10:03:30;;;;;;;4.97;4.57;;;19.80;99.90;;;;;;10482046;28;20196;-84
2021/09/24 10:08:34;;;;;;;4.30;4.00;;;19.70;99.90;;;;;;10482175;28;20298;-84
2021/09/24 10:13:52;;;;;;;6.30;4.50;;;19.60;99.90;;;;;;10482558;28;20303;-84
2021/09/24 10:18:54;;;;;;;5.70;5.30;;;19.50;99.90;;;;;;10482430;28;20232;-84
2021/09/24 10:23:58;;;;;;;6.33;5.40;;;19.40;99.90;;;;;;10482272;28;20254;-85
2021/09/24 10:29:05;;;;;;;5.53;5.20;;;19.30;99.90;;;;;;10465736;28;20267;-84
2021/09/24 10:34:08;;;;;;;5.50;5.00;;;19.20;99.90;;;;;;10482286;28;20232;-85
2021/09/24 10:39:47;;;;;;;6.00;5.50;;;19.10;99.90;;;;;;10498042;28;20216;-84
2021/09/24 10:45:08;;;;;;;6.27;5.63;;;19.00;99.90;;;;;;10455130;28;20200;-84
2021/09/24 10:50:45;;;;;;;5.03;4.63;;;18.90;99.90;;;;;;10464303;28;20707;-84
2021/09/24 10:56:08;;;;;;;5.03;4.63;;;18.80;99.90;;;;;;10455497;28;20742;-85
2021/09/24 11:01:29;;;;;;;5.50;5.10;;;18.80;99.90;;;;;;10464898;28;20213;-85
2021/09/24 11:06:35;;;;;;;4.93;4.33;;;18.70;99.90;;;;;;10479993;28;20207;-85
2021/09/24 11:11:40;;;;;;;5.10;4.80;;;18.60;99.90;;;;;;10498630;28;20208;-85
2021/09/24 11:16:47;;;;;;;4.87;4.47;;;18.60;99.90;;;;;;10479232;28;20197;-85
2021/09/24 11:22:17;;;;;;;4.70;4.40;;;18.50;99.90;;;;;;10480557;28;20287;-85
2021/09/24 11:27:33;;;;;;;4.30;4.00;;;18.60;99.90;;;;;;10463243;28;20286;-85
2021/09/24 11:32:41;;;;;;;5.37;4.97;;;18.50;99.90;;;;;;10462778;28;20227;-84
2021/09/24 11:37:46;;;;;;;5.50;5.00;;;18.60;99.90;;;;;;10462886;28;20239;-84
2021/09/24 11:42:51;;;;;;;4.30;4.10;;;18.70;99.90;;;;;;10479334;28;20284;-84
2021/09/24 11:48:00;;;;;;;5.53;5.03;;;18.80;99.90;;;;;;10471071;28;20260;-84
2021/09/24 11:53:09;;;;;;;3.80;3.60;;;18.80;99.90;;;;;;10441629;28;20764;-85
2021/09/24 11:58:13;;;;;;;5.10;4.13;;;18.90;99.90;;;;;;10439974;28;20221;-85
2021/09/24 12:03:22;;;;;;;4.80;4.50;;;18.90;99.90;;;;;;10439654;28;20185;-85
2021/09/24 12:08:27;;;;;;;5.60;5.20;;;18.90;99.90;;;;;;10439115;28;20312;-85
2021/09/24 12:13:44;;;;;;;5.73;5.33;;;18.80;99.90;;;;;;10421117;28;20256;-85
2021/09/24 12:18:51;;;;;;;5.33;4.90;;;18.90;99.90;;;;;;10455705;28;20376;-84
2021/09/24 12:23:54;;;;;;;5.20;4.73;;;18.90;99.90;;;;;;10495919;28;20216;-85
2021/09/24 12:28:59;;;;;;;4.23;3.93;;;18.90;99.90;;;;;;10476799;28;20600;-84
2021/09/24 12:34:03;;;;;;;6.63;4.60;;;18.90;99.90;;;;;;10477129;28;20259;-85
2021/09/24 12:39:12;;;;;;;6.03;5.33;;;18.90;99.90;;;;;;10461127;28;20286;-85
2021/09/24 12:44:15;;;;;;;5.43;5.03;;;19.00;99.90;;;;;;10478322;28;20292;-84
2021/09/24 12:49:19;;;;;;;5.50;5.10;;;19.10;99.90;;;;;;10466571;28;20224;-84
2021/09/24 12:54:23;;;;;;;5.30;5.00;;;19.20;99.90;;;;;;10469306;28;20251;-84
2021/09/24 12:59:25;;;;;;;6.93;5.47;;;19.30;99.90;;;;;;10485590;28;20217;-85
2021/09/24 13:04:29;;;;;;;5.57;5.10;;;19.30;99.90;;;;;;10467922;28;20548;-84
2021/09/24 13:09:33;;;;;;;6.57;5.97;;;19.30;99.90;;;;;;10468107;28;20648;-84
2021/09/24 13:14:35;;;;;;;9.57;6.40;;;19.30;99.90;;;;;;10467675;28;20228;-84
2021/09/24 13:19:39;;;;;;;6.83;6.23;;;19.30;99.90;;;;;;10466844;28;20669;-85
2021/09/24 13:24:41;;;;;;;6.47;5.97;;;19.30;99.90;;;;;;10467411;28;20567;-85
2021/09/24 13:29:46;;;;;;;6.00;5.60;;;19.20;99.90;;;;;;10483311;28;20224;-85
2021/09/24 13:34:49;;;;;;;6.00;5.50;;;19.20;99.90;;;;;;10483176;28;20282;-85
2021/09/24 13:39:54;;;;;;;5.53;5.07;;;19.20;99.90;;;;;;10526498;23;20665;-83
2021/09/24 13:44:56;;;;;;;6.30;5.77;;;19.30;99.90;;;;;;10472169;28;20200;-84
2021/09/24 13:50:00;;;;;;;5.90;5.50;;;19.40;99.90;;;;;;10501601;28;20232;-85
2021/09/24 13:55:03;;;;;;;6.83;6.30;;;19.40;99.90;;;;;;10467889;28;20255;-84
2021/09/24 14:00:07;;;;;;;7.00;6.40;;;19.50;99.90;;;;;;10466861;28;20228;-85
2021/09/24 14:05:16;;;;;;;6.30;5.90;;;19.50;99.90;;;;;;10484392;28;20224;-84
2021/09/24 14:10:19;;;;;;;5.93;5.53;;;19.40;99.90;;;;;;10467354;28;20216;-84
2021/09/24 14:20:40;;;;;;;6.10;5.60;;;19.50;99.90;;;;;;10459536;28;20228;-84
2021/09/24 14:25:42;;;;;;;6.30;5.40;;;19.50;99.90;;;;;;10461072;28;20200;-84
2021/09/24 14:30:44;;;;;;;6.33;5.77;;;19.60;99.90;;;;;;10441668;28;20232;-84
2021/09/24 14:35:48;;;;;;;5.50;5.20;;;19.60;99.90;;;;;;10461146;28;20228;-85
2021/09/24 14:46:06;;;;;;;5.87;5.47;;;19.60;99.90;;;;;;10441862;28;20196;-85
2021/09/24 14:51:10;;;;;;;5.93;5.53;;;19.60;99.90;;;;;;10471805;28;20453;-86
2021/09/24 14:56:12;;;;;;;6.90;6.30;;;19.70;99.90;;;;;;10465332;28;20291;-86
2021/09/24 15:01:14;;;;;;;6.60;6.10;;;19.70;99.90;;;;;;10500162;28;20201;-85
2021/09/24 15:06:18;;;;;;;6.47;6.00;;;19.60;99.90;;;;;;10466434;28;20718;-86
2021/09/24 15:11:20;;;;;;;7.13;6.40;;;19.60;99.90;;;;;;10482330;28;20692;-85
2021/09/24 15:16:25;;;;;;;6.27;5.87;;;19.70;99.90;;;;;;10481819;28;20201;-83
2021/09/24 15:21:35;;;;;;;6.37;5.97;;;19.80;99.90;;;;;;10501947;28;20223;-85
2021/09/24 15:26:37;;;;;;;7.03;5.40;;;19.90;99.90;;;;;;10480915;28;20618;-84
2021/09/24 15:31:39;;;;;;;6.13;5.63;;;20.00;99.90;;;;;;10464008;28;20220;-85
2021/09/24 15:36:43;;;;;;;7.33;6.73;;;20.00;99.90;;;;;;10481176;28;20203;-85
2021/09/24 15:41:45;;;;;;;6.23;5.80;;;20.10;99.90;;;;;;10499618;28;20815;-84
2021/09/24 15:46:48;;;;;;;6.63;6.13;;;20.20;99.90;;;;;;10483050;28;20184;-85
2021/09/24 15:51:52;;;;;;;7.03;6.33;;;20.20;99.90;;;;;;10491017;28;20227;-86
2021/09/24 15:56:54;;;;;;;6.30;5.80;;;20.20;99.90;;;;;;10422563;28;20609;-85
2021/09/24 16:01:57;;;;;;;5.90;5.50;;;20.20;99.90;;;;;;10456518;28;20213;-85
2021/09/24 16:07:00;;;;;;;7.70;7.10;;;20.20;99.90;;;;;;10458652;28;20201;-84
2021/09/24 16:12:04;;;;;;;7.53;6.90;;;20.10;99.90;;;;;;10451998;28;20313;-85
2021/09/24 16:17:06;;;;;;;6.30;5.90;;;20.10;99.90;;;;;;10442090;28;20216;-86
2021/09/24 16:22:10;;;;;;;6.23;5.83;;;20.00;99.90;;;;;;10477951;28;20196;-85
2021/09/24 16:27:12;;;;;;;6.50;6.00;;;19.90;99.90;;;;;;10496988;28;20236;-85
2021/09/24 16:32:14;;;;;;;7.20;6.60;;;19.80;99.90;;;;;;10493778;28;20200;-85
2021/09/24 16:37:18;;;;;;;6.60;6.10;;;19.80;99.90;;;;;;10460724;28;20232;-85
2021/09/24 16:42:20;;;;;;;6.87;6.37;;;19.70;99.90;;;;;;10498293;28;20199;-85
2021/09/24 16:47:22;;;;;;;7.63;7.03;;;19.70;99.90;;;;;;10495123;28;20216;-85
2021/09/24 16:52:26;;;;;;;7.37;6.80;;;19.60;99.90;;;;;;10460728;28;20595;-84
2021/09/24 16:57:28;;;;;;;6.67;6.07;;;19.40;99.90;;;;;;10477416;28;20231;-86
2021/09/24 17:02:30;;;;;;;6.53;6.03;;;19.30;99.90;;;;;;10459791;28;20660;-84
2021/09/24 17:07:34;;;;;;;9.83;7.13;;;19.20;99.90;;;;;;10494789;28;20643;-86
2021/09/24 17:12:36;;;;;;;10.80;9.13;;;19.10;99.90;;;;;;10476290;28;20217;-85
2021/09/24 17:17:39;;;;;;;13.00;9.77;;;19.10;99.90;;;;;;10477277;28;20647;-86
2021/09/24 17:22:42;;;;;;;10.73;9.87;;;19.10;99.90;;;;;;10476532;28;20801;-84
2021/09/24 17:27:45;;;;;;;9.37;8.47;;;19.00;99.90;;;;;;10476355;28;20220;-85
2021/09/24 17:32:47;;;;;;;8.27;7.67;;;19.00;99.90;;;;;;10460946;28;20228;-85
2021/09/24 17:37:51;;;;;;;8.33;7.70;;;18.90;99.90;;;;;;10500603;28;20255;-85
2021/09/24 17:42:53;;;;;;;8.80;8.10;;;18.80;99.90;;;;;;10467179;28;20199;-86
2021/09/24 17:47:55;;;;;;;8.10;7.30;;;18.70;99.90;;;;;;10484542;28;20285;-85
2021/09/24 17:52:59;;;;;;;9.00;8.10;;;18.60;99.90;;;;;;10507418;28;20212;-86
2021/09/24 17:58:01;;;;;;;8.97;8.17;;;18.50;99.90;;;;;;10488670;28;20213;-85
2021/09/24 18:03:04;;;;;;;9.40;8.47;;;18.30;99.90;;;;;;10484047;28;20193;-85
2021/09/24 18:08:07;;;;;;;8.20;7.50;;;18.30;99.90;;;;;;10467511;28;20311;-85
2021/09/24 18:13:10;;;;;;;8.90;8.00;;;18.20;99.90;;;;;;10482314;28;20231;-85
2021/09/24 18:18:13;;;;;;;8.10;7.40;;;18.10;99.90;;;;;;10499605;28;20228;-86
2021/09/24 18:23:16;;;;;;;7.97;7.27;;;18.00;99.90;;;;;;10500396;28;20673;-85
2021/09/24 18:28:19;;;;;;;8.17;7.47;;;18.00;99.90;;;;;;10481844;28;20222;-85
2021/09/24 18:33:22;;;;;;;9.10;8.10;;;17.90;99.90;;;;;;10482122;28;20246;-84
2021/09/24 18:38:25;;;;;;;7.63;7.03;;;17.80;99.90;;;;;;10499921;28;20274;-86
2021/09/24 18:43:28;;;;;;;8.73;8.03;;;17.80;99.90;;;;;;10481024;28;20185;-85
2021/09/24 18:48:31;;;;;;;8.93;8.03;;;17.80;99.90;;;;;;10480640;28;20224;-85
2021/09/24 18:53:34;;;;;;;9.17;8.47;;;17.70;99.90;;;;;;10464951;28;20235;-86
2021/09/24 18:58:37;;;;;;;10.50;9.60;;;17.70;99.90;;;;;;10465249;28;20271;-84
2021/09/24 19:03:39;;;;;;;9.77;8.87;;;17.60;99.90;;;;;;10480809;28;20193;-85
2021/09/24 19:08:43;;;;;;;9.70;8.90;;;17.50;99.90;;;;;;10466719;28;20234;-85
2021/09/24 19:13:45;;;;;;;10.37;9.47;;;17.50;99.90;;;;;;10512563;28;20208;-84
2021/09/24 19:18:49;;;;;;;10.50;9.57;;;17.40;99.90;;;;;;10507788;28;20708;-85
2021/09/24 19:23:52;;;;;;;7.87;7.17;;;17.40;99.90;;;;;;10480041;28;20202;-84
2021/09/24 19:28:55;;;;;;;9.60;8.60;;;17.40;99.90;;;;;;10480089;28;20312;-85
2021/09/24 19:33:57;;;;;;;6.73;6.23;;;17.30;99.90;;;;;;10498079;28;20559;-85
2021/09/24 19:39:00;;;;;;;8.50;7.70;;;17.30;99.90;;;;;;10521684;22;20317;-84
2021/09/24 19:44:03;;;;;;;8.10;7.50;;;17.20;99.90;;;;;;10462721;28;20660;-84
2021/09/24 19:49:05;;;;;;;7.63;7.03;;;17.20;99.90;;;;;;10462147;28;20295;-84
2021/09/24 19:54:14;;;;;;;7.40;6.90;;;17.20;99.90;;;;;;10462422;28;20248;-84
2021/09/24 19:59:16;;;;;;;9.40;8.60;;;17.10;99.90;;;;;;10460797;28;20224;-84
2021/09/24 20:04:19;;;;;;;9.47;8.40;;;17.10;99.90;;;;;;10460762;28;20569;-84
2021/09/24 20:09:22;;;;;;;9.00;8.30;;;17.10;99.90;;;;;;10477541;28;20633;-84
2021/09/24 20:14:24;;;;;;;9.50;8.53;;;17.00;99.90;;;;;;10460671;28;20258;-84
2021/09/24 20:19:26;;;;;;;9.23;8.33;;;17.00;99.90;;;;;;10477329;28;20227;-84
2021/09/24 20:24:30;;;;;;;9.67;8.97;;;17.00;99.90;;;;;;10460293;28;20197;-84
2021/09/24 20:29:32;;;;;;;9.63;8.83;;;16.90;99.90;;;;;;10494829;28;20726;-83
2021/09/24 20:34:34;;;;;;;8.40;7.80;;;16.90;99.90;;;;;;10460441;28;20248;-84
2021/09/24 20:39:38;;;;;;;10.07;9.07;;;16.90;99.90;;;;;;10476564;28;20299;-84
2021/09/24 20:44:40;;;;;;;9.13;8.43;;;16.80;99.90;;;;;;10476699;28;20199;-83
2021/09/24 20:49:42;;;;;;;8.30;7.60;;;16.80;99.90;;;;;;10476187;28;20220;-84
2021/09/24 20:54:46;;;;;;;9.23;8.50;;;16.80;99.90;;;;;;10476134;28;20220;-84
2021/09/24 20:59:48;;;;;;;9.90;7.97;;;16.80;99.90;;;;;;10475864;28;20294;-84
2021/09/24 21:04:50;;;;;;;8.57;7.90;;;16.80;99.90;;;;;;10459314;28;20224;-84
2021/09/24 21:09:53;;;;;;;8.27;7.67;;;16.70;99.90;;;;;;10464091;28;20254;-84
2021/09/24 21:14:56;;;;;;;9.90;9.00;;;16.70;99.90;;;;;;10501682;28;20281;-84
2021/09/24 21:20:00;;;;;;;9.93;9.03;;;16.70;99.90;;;;;;10484001;28;20718;-84
2021/09/24 21:25:04;;;;;;;8.67;7.73;;;16.60;99.90;;;;;;10483785;28;20193;-84
2021/09/24 21:30:07;;;;;;;10.60;9.70;;;16.60;99.90;;;;;;10466838;28;20764;-84
2021/09/24 21:35:11;;;;;;;9.93;9.10;;;16.50;99.90;;;;;;10467114;28;20587;-84
2021/09/24 21:40:15;;;;;;;10.00;9.10;;;16.50;99.90;;;;;;10501538;28;20632;-84
2021/09/24 21:45:17;;;;;;;9.57;8.80;;;16.40;99.90;;;;;;10466755;28;20291;-84
2021/09/24 21:50:20;;;;;;;10.30;9.30;;;16.40;99.90;;;;;;10499701;28;20228;-84
2021/09/24 21:55:24;;;;;;;9.90;9.10;;;16.30;99.90;;;;;;10483400;28;20216;-84
2021/09/24 22:00:27;;;;;;;9.63;8.80;;;16.30;99.90;;;;;;10465877;28;20227;-84
2021/09/24 22:05:30;;;;;;;9.80;9.00;;;16.30;99.90;;;;;;10482305;28;20400;-84
2021/09/24 22:10:37;;;;;;;9.97;9.17;;;16.20;99.90;;;;;;10469652;28;20228;-84
2021/09/24 22:15:39;;;;;;;10.57;9.67;;;16.30;99.90;;;;;;10463350;28;20216;-84
2021/09/24 22:20:41;;;;;;;9.80;9.07;;;16.20;99.90;;;;;;10456605;28;20776;-84
2021/09/24 22:25:45;;;;;;;9.93;9.03;;;16.20;99.90;;;;;;10464693;28;20288;-84
2021/09/24 22:30:47;;;;;;;10.23;9.43;;;16.20;99.90;;;;;;10464315;28;20239;-84
2021/09/24 22:35:49;;;;;;;9.90;8.93;;;16.10;99.90;;;;;;10464266;28;20244;-84
2021/09/24 22:40:53;;;;;;;9.03;8.30;;;16.10;99.90;;;;;;10480971;28;20588;-84
2021/09/24 22:45:55;;;;;;;9.57;8.67;;;16.00;99.90;;;;;;10480632;28;20267;-84
2021/09/24 22:50:57;;;;;;;9.83;9.03;;;16.10;99.90;;;;;;10463845;28;20232;-84
2021/09/24 22:56:00;;;;;;;16.43;8.70;;;16.00;99.90;;;;;;10463672;28;20220;-84
2021/09/24 23:01:03;;;;;;;8.70;8.10;;;16.00;99.90;;;;;;10479966;28;20300;-84
2021/09/24 23:06:05;;;;;;;9.57;8.67;;;15.90;99.90;;;;;;10480341;28;20204;-84
2021/09/24 23:11:08;;;;;;;8.30;7.60;;;15.90;99.90;;;;;;10480359;28;20247;-84
2021/09/24 23:16:10;;;;;;;8.93;8.20;;;15.80;99.90;;;;;;10462793;28;20223;-84
2021/09/24 23:21:12;;;;;;;8.63;7.93;;;15.80;99.90;;;;;;10462554;28;20220;-84
2021/09/24 23:26:16;;;;;;;9.13;8.30;;;15.80;99.90;;;;;;10462406;28;20220;-84
2021/09/24 23:31:18;;;;;;;9.47;8.73;;;15.70;99.90;;;;;;10478226;28;20208;-84
2021/09/24 23:36:20;;;;;;;8.47;7.77;;;15.70;99.90;;;;;;10496327;28;20315;-84
2021/09/24 23:41:24;;;;;;;11.10;9.20;;;15.70;99.90;;;;;;10478573;28;20248;-84
2021/09/24 23:46:26;;;;;;;8.83;8.03;;;15.70;99.90;;;;;;10461189;28;20220;-84
2021/09/24 23:51:28;;;;;;;8.10;7.40;;;15.70;99.90;;;;;;10478404;28;20236;-84
2021/09/24 23:56:31;;;;;;;8.47;7.77;;;15.70;99.90;;;;;;10461143;28;20252;-83
